Time;durP1;ratioP1;P1;durP2;ratioP2;P2;SDS_P1;SDS_P2;PMS_P1;PMS_P2;Temp;Humidity;BMP_temperature;BMP_pressure;BME280_temperature;BME280_humidity;BME280_pressure;Samples;Min_cycle;Max_cycle;Signal;HPM_P1;HPM_P2
2021/06/11 00:00:08;;;;;;;5.87;4.83;;;21.60;75.10;;;;;;5030339;28;20948;-51
2021/06/11 00:02:38;;;;;;;5.87;4.40;;;21.60;75.40;;;;;;5031078;28;21042;-51
2021/06/11 00:05:05;;;;;;;4.87;4.20;;;21.60;75.70;;;;;;5031065;28;20434;-50
2021/06/11 00:07:33;;;;;;;5.57;3.67;;;21.50;75.80;;;;;;5030924;28;20438;-51
2021/06/11 00:09:59;;;;;;;4.60;3.70;;;21.50;76.00;;;;;;5030559;28;20461;-51
2021/06/11 00:12:26;;;;;;;4.40;4.00;;;21.50;76.30;;;;;;5031166;28;20457;-51
2021/06/11 00:14:52;;;;;;;5.20;3.80;;;21.50;76.60;;;;;;5030694;28;20819;-51
2021/06/11 00:17:18;;;;;;;4.63;4.23;;;21.50;76.70;;;;;;5030891;28;20947;-51
2021/06/11 00:19:44;;;;;;;5.60;4.60;;;21.40;76.50;;;;;;5030779;28;20820;-51
2021/06/11 00:22:11;;;;;;;4.57;4.17;;;21.50;76.30;;;;;;5031000;28;20892;-52
2021/06/11 00:24:38;;;;;;;5.27;4.77;;;21.50;76.00;;;;;;5029460;28;20536;-51
2021/06/11 00:27:05;;;;;;;4.93;4.53;;;21.50;75.80;;;;;;5030521;28;20532;-50
2021/06/11 00:29:32;;;;;;;5.23;3.93;;;21.50;75.70;;;;;;5029982;28;20447;-50
2021/06/11 00:31:58;;;;;;;5.93;4.50;;;21.50;75.40;;;;;;5030354;28;20449;-50
2021/06/11 00:34:24;;;;;;;5.93;4.00;;;21.50;75.20;;;;;;5030582;28;20436;-51
2021/06/11 00:36:50;;;;;;;7.13;4.40;;;21.50;75.00;;;;;;5030487;28;20815;-50
2021/06/11 00:39:16;;;;;;;5.23;4.70;;;21.50;74.90;;;;;;5030593;28;20811;-51
2021/06/11 00:41:44;;;;;;;4.73;3.90;;;21.50;75.10;;;;;;5030838;28;20534;-51
2021/06/11 00:44:10;;;;;;;5.80;4.73;;;21.60;75.40;;;;;;5030533;28;20428;-51
2021/06/11 00:46:36;;;;;;;5.67;3.97;;;21.60;75.60;;;;;;5030946;28;20437;-51
2021/06/11 00:49:02;;;;;;;4.50;4.10;;;21.50;75.60;;;;;;5029976;28;20438;-50
2021/06/11 00:51:28;;;;;;;5.53;4.63;;;21.50;75.70;;;;;;5028896;28;20440;-51
2021/06/11 00:53:55;;;;;;;5.93;4.53;;;21.50;76.10;;;;;;5030090;28;20552;-50
2021/06/11 00:56:21;;;;;;;5.13;4.70;;;21.50;75.70;;;;;;5030067;28;20430;-50
2021/06/11 00:58:49;;;;;;;7.80;5.10;;;21.50;75.80;;;;;;5029924;28;20825;-50
2021/06/11 01:01:15;;;;;;;5.60;4.13;;;21.50;75.80;;;;;;5030238;28;20547;-50
2021/06/11 01:03:41;;;;;;;6.43;4.90;;;21.50;75.80;;;;;;5030471;28;20459;-51
2021/06/11 01:06:08;;;;;;;5.30;4.63;;;21.50;76.00;;;;;;5030468;28;20447;-50
2021/06/11 01:08:35;;;;;;;5.80;5.10;;;21.50;76.00;;;;;;5030168;28;20434;-51
2021/06/11 01:11:02;;;;;;;4.77;4.30;;;21.40;75.90;;;;;;5030362;28;20446;-50
2021/06/11 01:13:29;;;;;;;4.83;4.03;;;21.40;75.90;;;;;;5030545;28;20529;-50
2021/06/11 01:15:56;;;;;;;6.30;5.07;;;21.40;75.90;;;;;;5030496;28;20494;-50
2021/06/11 01:18:23;;;;;;;7.57;4.93;;;21.40;76.00;;;;;;5030288;28;20479;-51
2021/06/11 01:20:49;;;;;;;5.03;4.53;;;21.40;76.10;;;;;;5030642;28;20550;-51
2021/06/11 01:23:37;;;;;;;5.00;4.53;;;21.40;76.20;;;;;;5030321;28;20484;-50
2021/06/11 01:26:21;;;;;;;4.60;4.20;;;21.40;76.60;;;;;;5030456;28;20460;-51
2021/06/11 01:28:49;;;;;;;6.20;4.60;;;21.40;76.50;;;;;;5030145;28;20806;-51
2021/06/11 01:31:16;;;;;;;6.00;3.77;;;21.30;76.30;;;;;;5030266;28;20502;-51
2021/06/11 01:33:43;;;;;;;4.27;3.87;;;21.40;76.50;;;;;;5030278;28;20467;-50
2021/06/11 01:36:12;;;;;;;4.37;3.97;;;21.30;76.30;;;;;;5028969;28;20960;-51
2021/06/11 01:38:41;;;;;;;5.03;4.50;;;21.30;76.50;;;;;;5029936;28;20432;-51
2021/06/11 01:41:10;;;;;;;5.43;4.53;;;21.30;76.60;;;;;;5032806;28;20528;-51
2021/06/11 01:43:38;;;;;;;6.90;4.87;;;21.30;76.80;;;;;;5033688;28;20465;-50
2021/06/11 01:46:06;;;;;;;6.40;4.30;;;21.30;77.20;;;;;;5033671;28;20448;-50
2021/06/11 01:48:33;;;;;;;5.47;4.97;;;21.30;77.40;;;;;;5033648;28;20434;-51
2021/06/11 01:50:59;;;;;;;6.97;4.43;;;21.30;77.50;;;;;;5033863;28;21001;-51
2021/06/11 01:53:27;;;;;;;5.07;4.67;;;21.30;77.60;;;;;;5033735;28;20839;-51
2021/06/11 01:55:55;;;;;;;5.27;4.77;;;21.30;77.70;;;;;;5033699;28;20429;-50
2021/06/11 01:58:22;;;;;;;6.83;5.90;;;21.20;77.70;;;;;;5033242;28;20436;-50
2021/06/11 02:00:53;;;;;;;10.63;5.07;;;21.20;77.70;;;;;;5033484;28;20449;-50
2021/06/11 02:03:22;;;;;;;8.87;5.20;;;21.20;77.50;;;;;;5032061;28;20497;-50
2021/06/11 02:05:49;;;;;;;4.93;4.43;;;21.20;77.60;;;;;;5033669;28;21003;-50
2021/06/11 02:08:17;;;;;;;7.87;4.53;;;21.20;77.70;;;;;;5033244;28;20446;-51
2021/06/11 02:10:43;;;;;;;14.13;5.20;;;21.20;77.80;;;;;;5033274;28;20436;-50
2021/06/11 02:13:10;;;;;;;5.57;5.00;;;21.20;78.10;;;;;;5033300;28;20465;-51
2021/06/11 02:15:38;;;;;;;5.50;4.30;;;21.10;77.90;;;;;;5033250;28;20939;-51
2021/06/11 02:18:06;;;;;;;6.27;5.40;;;21.10;77.90;;;;;;5032952;28;20433;-50
2021/06/11 02:20:32;;;;;;;6.73;4.80;;;21.10;78.10;;;;;;5033158;28;20499;-51
2021/06/11 02:22:59;;;;;;;8.10;5.70;;;21.10;78.10;;;;;;5033096;28;20851;-51
2021/06/11 02:25:26;;;;;;;5.70;5.10;;;21.10;77.90;;;;;;5033109;28;20721;-51
2021/06/11 02:27:55;;;;;;;6.77;4.47;;;21.10;78.10;;;;;;5031681;28;20446;-51
2021/06/11 02:30:21;;;;;;;8.83;4.47;;;21.10;78.10;;;;;;5033116;28;20812;-50
2021/06/11 02:32:48;;;;;;;8.13;5.10;;;21.10;78.20;;;;;;5031631;28;20534;-50
2021/06/11 02:35:18;;;;;;;6.93;4.67;;;21.10;78.30;;;;;;5033138;28;20443;-51
2021/06/11 02:37:45;;;;;;;8.70;5.90;;;21.00;78.40;;;;;;5032979;28;20438;-51
2021/06/11 02:40:12;;;;;;;5.80;5.13;;;21.00;78.30;;;;;;5032383;28;20826;-51
2021/06/11 02:42:39;;;;;;;6.87;5.70;;;21.00;78.30;;;;;;5032664;28;20489;-50
2021/06/11 02:45:09;;;;;;;5.83;5.23;;;21.00;78.50;;;;;;5032561;28;20483;-50
2021/06/11 02:47:40;;;;;;;6.53;5.27;;;21.00;78.70;;;;;;5031903;28;20439;-50
2021/06/11 02:50:10;;;;;;;5.83;5.33;;;21.10;79.10;;;;;;5031757;28;20435;-50
2021/06/11 02:52:44;;;;;;;6.20;5.60;;;21.00;79.50;;;;;;5032408;28;20970;-50
2021/06/11 02:55:12;;;;;;;7.03;5.60;;;21.00;79.80;;;;;;5032437;28;20891;-50
2021/06/11 02:57:45;;;;;;;8.17;4.73;;;20.60;80.10;;;;;;5032645;28;20479;-49
2021/06/11 03:00:12;;;;;;;6.57;4.87;;;21.00;80.10;;;;;;5032097;28;20519;-50
2021/06/11 03:02:44;;;;;;;5.20;4.70;;;21.00;80.10;;;;;;5032119;28;20483;-50
2021/06/11 03:05:14;;;;;;;5.20;4.80;;;21.00;80.10;;;;;;5031266;28;20942;-51
2021/06/11 03:07:44;;;;;;;5.60;4.97;;;21.00;80.20;;;;;;5032191;28;20443;-49
2021/06/11 03:10:13;;;;;;;6.10;5.07;;;21.00;80.40;;;;;;5032207;28;20453;-51
2021/06/11 03:12:42;;;;;;;5.30;4.80;;;21.00;80.50;;;;;;5032085;28;20456;-51
2021/06/11 03:15:09;;;;;;;7.37;5.60;;;21.00;80.50;;;;;;5032318;28;20455;-50
2021/06/11 03:17:42;;;;;;;7.43;5.70;;;21.00;80.60;;;;;;5031935;28;20532;-49
2021/06/11 03:20:13;;;;;;;6.40;5.23;;;21.00;80.80;;;;;;5031688;28;20432;-50
2021/06/11 03:22:49;;;;;;;7.40;6.30;;;21.00;80.80;;;;;;5031770;28;20480;-50
2021/06/11 03:25:20;;;;;;;6.03;5.43;;;21.00;80.90;;;;;;5032092;28;20442;-50
2021/06/11 03:27:52;;;;;;;18.57;6.20;;;21.00;80.80;;;;;;5032040;28;20527;-52
2021/06/11 03:30:19;;;;;;;9.70;5.73;;;21.00;80.80;;;;;;5031525;28;20922;-51
2021/06/11 03:32:47;;;;;;;10.93;6.57;;;21.00;80.70;;;;;;5031676;28;20824;-52
2021/06/11 03:35:18;;;;;;;10.00;5.97;;;21.10;80.80;;;;;;5031705;28;20429;-50
2021/06/11 03:37:50;;;;;;;8.97;5.50;;;21.10;80.80;;;;;;5031610;28;20440;-50
2021/06/11 03:40:21;;;;;;;5.50;5.00;;;21.10;80.80;;;;;;5031396;28;20523;-51
2021/06/11 03:42:49;;;;;;;6.27;5.67;;;21.10;80.70;;;;;;5031380;28;20896;-52
2021/06/11 03:45:16;;;;;;;8.37;5.27;;;21.10;80.80;;;;;;5031400;28;20806;-51
2021/06/11 03:47:44;;;;;;;11.80;6.20;;;21.20;80.90;;;;;;5031452;28;20438;-52
2021/06/11 03:50:11;;;;;;;7.53;5.97;;;21.20;81.00;;;;;;5031297;28;20515;-50
2021/06/11 03:52:39;;;;;;;10.97;5.90;;;21.20;81.10;;;;;;5031150;28;20470;-51
2021/06/11 03:55:13;;;;;;;10.90;5.57;;;21.20;81.20;;;;;;5031437;28;20429;-51
2021/06/11 03:57:41;;;;;;;6.53;5.37;;;21.30;81.20;;;;;;5031116;28;20449;-51
2021/06/11 04:00:09;;;;;;;7.37;5.60;;;21.30;81.30;;;;;;5031154;28;20800;-51
2021/06/11 04:02:35;;;;;;;8.27;5.73;;;21.30;81.20;;;;;;5030894;28;20493;-51
2021/06/11 04:05:02;;;;;;;6.13;5.53;;;21.30;81.40;;;;;;5031229;28;20588;-50
2021/06/11 04:07:32;;;;;;;9.20;5.40;;;21.30;81.50;;;;;;5031253;28;20441;-50
2021/06/11 04:10:03;;;;;;;8.77;5.10;;;21.40;82.00;;;;;;5030770;28;20442;-51
2021/06/11 04:12:36;;;;;;;8.33;6.60;;;21.40;82.20;;;;;;5029839;28;20469;-51
2021/06/11 04:15:02;;;;;;;8.27;5.77;;;21.40;82.10;;;;;;5031198;28;20426;-50
2021/06/11 04:17:34;;;;;;;12.30;5.93;;;21.50;82.30;;;;;;5030999;28;20437;-51
2021/06/11 04:20:03;;;;;;;14.43;6.63;;;21.60;82.30;;;;;;5030883;28;20911;-51
2021/06/11 04:22:32;;;;;;;13.57;7.00;;;21.60;82.20;;;;;;5030502;28;20486;-51
2021/06/11 04:25:00;;;;;;;7.83;7.03;;;21.60;82.00;;;;;;5030620;28;20441;-51
2021/06/11 04:27:28;;;;;;;10.07;7.23;;;21.70;81.90;;;;;;5030929;28;20445;-50
2021/06/11 04:29:56;;;;;;;9.33;6.77;;;21.80;82.60;;;;;;5030320;28;20431;-51
2021/06/11 04:32:22;;;;;;;7.90;6.80;;;22.00;81.60;;;;;;5030343;28;20459;-50
2021/06/11 04:34:55;;;;;;;13.30;6.47;;;22.10;81.20;;;;;;5030649;28;20435;-51
2021/06/11 04:37:21;;;;;;;10.40;7.33;;;22.10;80.60;;;;;;5030569;28;20452;-51
2021/06/11 04:39:47;;;;;;;10.47;8.67;;;22.20;80.40;;;;;;5030283;28;20430;-51
2021/06/11 04:42:13;;;;;;;9.23;7.30;;;22.30;80.10;;;;;;5030403;28;20500;-50
2021/06/11 04:44:40;;;;;;;7.67;6.70;;;22.40;79.70;;;;;;5030574;28;20431;-51
2021/06/11 04:47:07;;;;;;;7.80;6.23;;;22.40;79.30;;;;;;5030581;28;20533;-51
2021/06/11 04:49:33;;;;;;;10.57;8.00;;;22.20;78.70;;;;;;5030001;28;20954;-50
2021/06/11 04:51:59;;;;;;;15.53;8.57;;;22.30;78.80;;;;;;5030788;28;20462;-51
2021/06/11 04:54:26;;;;;;;10.87;7.43;;;22.10;78.80;;;;;;5030516;28;20924;-51
2021/06/11 04:56:52;;;;;;;13.40;8.60;;;22.30;79.40;;;;;;5030520;28;20439;-50
2021/06/11 04:59:18;;;;;;;10.57;7.23;;;22.30;79.50;;;;;;5030023;28;20951;-51
2021/06/11 05:01:45;;;;;;;12.70;6.93;;;22.30;79.50;;;;;;5028897;28;21082;-51
2021/06/11 05:04:13;;;;;;;12.90;7.17;;;22.30;79.30;;;;;;5030444;28;20626;-51
2021/06/11 05:06:39;;;;;;;10.00;7.03;;;22.30;79.30;;;;;;5029975;28;20443;-51
2021/06/11 05:09:05;;;;;;;11.90;6.53;;;22.50;78.70;;;;;;5029738;28;20492;-51
2021/06/11 05:11:31;;;;;;;7.20;6.50;;;22.70;78.00;;;;;;5030201;28;20440;-50
2021/06/11 05:13:58;;;;;;;9.13;7.67;;;22.70;77.20;;;;;;5030337;28;20460;-51
2021/06/11 05:16:24;;;;;;;6.80;6.20;;;22.90;76.70;;;;;;5033408;28;20446;-51
2021/06/11 05:18:50;;;;;;;6.73;6.00;;;23.10;75.00;;;;;;5033602;28;20556;-51
2021/06/11 05:21:17;;;;;;;7.00;5.63;;;23.10;75.80;;;;;;5033519;28;20444;-51
2021/06/11 05:23:44;;;;;;;12.00;7.20;;;23.20;75.10;;;;;;5033877;28;20500;-51
2021/06/11 05:26:10;;;;;;;8.10;6.67;;;23.30;74.50;;;;;;5032264;28;20452;-51
2021/06/11 05:28:36;;;;;;;12.73;6.40;;;23.50;74.00;;;;;;5033717;28;20439;-51
2021/06/11 05:31:02;;;;;;;12.67;6.20;;;23.60;73.40;;;;;;5033646;28;20437;-50
2021/06/11 05:33:28;;;;;;;11.93;6.20;;;23.70;72.70;;;;;;5033489;28;20448;-51
2021/06/11 05:35:54;;;;;;;13.30;6.67;;;23.80;72.00;;;;;;5033180;28;20432;-50
2021/06/11 05:38:22;;;;;;;9.67;6.93;;;23.90;71.50;;;;;;5032272;28;20440;-50
2021/06/11 05:40:48;;;;;;;11.10;5.80;;;24.00;70.70;;;;;;5031048;28;20471;-51
2021/06/11 05:43:14;;;;;;;8.27;6.43;;;24.20;70.50;;;;;;5032244;28;20963;-51
2021/06/11 05:45:41;;;;;;;12.63;5.33;;;24.10;69.80;;;;;;5032601;28;20446;-51
2021/06/11 05:48:08;;;;;;;8.33;4.80;;;24.30;69.30;;;;;;5032089;28;20451;-52
2021/06/11 05:50:34;;;;;;;8.53;5.30;;;24.40;68.10;;;;;;5034535;28;20906;-51
2021/06/11 05:53:00;;;;;;;8.73;5.10;;;24.40;67.20;;;;;;5034770;28;20486;-51
2021/06/11 05:55:28;;;;;;;7.83;6.00;;;24.50;66.70;;;;;;5034700;28;20444;-51
2021/06/11 05:57:55;;;;;;;6.87;6.23;;;24.50;66.40;;;;;;5034470;28;20526;-51
2021/06/11 06:00:22;;;;;;;6.10;5.40;;;24.60;66.10;;;;;;5033667;28;20446;-51
2021/06/11 06:02:48;;;;;;;8.30;6.80;;;24.70;65.70;;;;;;5033785;28;20507;-51
2021/06/11 06:05:15;;;;;;;11.20;5.60;;;24.70;65.30;;;;;;5033631;28;20445;-52
2021/06/11 06:07:41;;;;;;;7.20;6.50;;;24.60;64.80;;;;;;5033513;28;20436;-51
2021/06/11 06:10:09;;;;;;;6.57;5.87;;;24.90;64.50;;;;;;5032874;28;20920;-51
2021/06/11 06:12:36;;;;;;;6.57;5.97;;;24.80;62.90;;;;;;5032884;28;20520;-51
2021/06/11 06:15:03;;;;;;;6.10;5.60;;;24.90;63.10;;;;;;5033111;28;20440;-53
2021/06/11 06:17:34;;;;;;;7.23;6.60;;;25.40;63.40;;;;;;5031858;28;20546;-52
2021/06/11 06:20:01;;;;;;;7.47;6.73;;;24.90;63.00;;;;;;5032897;28;20521;-52
2021/06/11 06:22:27;;;;;;;10.70;6.63;;;24.80;62.90;;;;;;5032459;28;20490;-52
2021/06/11 06:24:53;;;;;;;7.83;5.40;;;24.80;63.10;;;;;;5032788;28;20438;-53
2021/06/11 06:27:19;;;;;;;7.90;7.20;;;24.90;63.20;;;;;;5032450;28;20440;-51
2021/06/11 06:29:46;;;;;;;6.57;5.63;;;25.10;62.90;;;;;;5032111;28;20434;-51
2021/06/11 06:32:13;;;;;;;8.40;6.40;;;25.30;62.80;;;;;;5031478;28;20466;-51
2021/06/11 06:34:39;;;;;;;13.83;7.53;;;25.40;62.50;;;;;;5031876;28;20436;-51
2021/06/11 06:37:06;;;;;;;16.00;8.23;;;25.50;62.10;;;;;;5031618;28;20792;-51
2021/06/11 06:39:32;;;;;;;11.10;7.80;;;25.50;61.90;;;;;;5031814;28;20428;-54
2021/06/11 06:41:59;;;;;;;8.70;7.43;;;25.50;61.50;;;;;;5030455;28;20490;-52
2021/06/11 06:44:25;;;;;;;7.33;6.63;;;25.50;61.40;;;;;;5032351;28;20589;-52
2021/06/11 06:46:52;;;;;;;9.43;6.77;;;25.50;61.40;;;;;;5032253;28;20834;-50
2021/06/11 06:49:18;;;;;;;17.07;14.83;;;25.50;61.70;;;;;;5031818;28;20441;-51
2021/06/11 06:51:45;;;;;;;20.83;16.37;;;25.50;61.90;;;;;;5031820;28;20501;-50
2021/06/11 06:54:11;;;;;;;9.63;8.73;;;25.50;61.50;;;;;;5031501;28;20427;-51
2021/06/11 06:56:37;;;;;;;11.10;8.03;;;25.50;61.20;;;;;;5032019;28;20446;-51
2021/06/11 06:59:03;;;;;;;8.87;7.60;;;25.60;61.00;;;;;;5031594;28;20432;-51
2021/06/11 07:01:29;;;;;;;10.37;7.53;;;25.70;60.90;;;;;;5031669;28;20439;-51
2021/06/11 07:03:59;;;;;;;7.97;6.90;;;25.70;60.80;;;;;;5031729;28;20483;-50
2021/06/11 07:06:25;;;;;;;9.60;7.13;;;25.70;60.80;;;;;;5030223;28;20455;-51
2021/06/11 07:08:51;;;;;;;11.27;8.27;;;25.80;61.00;;;;;;5031147;28;20519;-53
2021/06/11 07:11:18;;;;;;;8.80;8.10;;;25.80;61.00;;;;;;5031689;28;20901;-51
2021/06/11 07:13:44;;;;;;;12.73;7.70;;;25.80;60.70;;;;;;5031359;28;20491;-52
2021/06/11 07:16:11;;;;;;;8.00;7.20;;;25.80;61.00;;;;;;5031263;28;20439;-51
2021/06/11 07:18:37;;;;;;;22.13;9.63;;;25.80;61.00;;;;;;5031210;28;20436;-51
2021/06/11 07:21:05;;;;;;;17.93;8.37;;;25.70;61.00;;;;;;5031180;28;20970;-52
2021/06/11 07:23:35;;;;;;;13.50;7.60;;;25.80;61.00;;;;;;5029888;28;20471;-51
2021/06/11 07:26:05;;;;;;;8.23;7.43;;;25.80;61.50;;;;;;5031125;28;20435;-52
2021/06/11 07:28:31;;;;;;;8.90;6.63;;;25.80;61.10;;;;;;5031234;28;20909;-51
2021/06/11 07:30:58;;;;;;;8.70;7.90;;;25.70;60.70;;;;;;5031020;28;20788;-52
2021/06/11 07:33:24;;;;;;;8.77;8.03;;;25.60;60.80;;;;;;5031304;28;20447;-52
2021/06/11 07:35:53;;;;;;;12.00;8.07;;;25.50;60.90;;;;;;5031485;28;20434;-52
2021/06/11 07:38:24;;;;;;;8.83;7.90;;;25.50;61.20;;;;;;5028454;28;20550;-52
2021/06/11 07:40:53;;;;;;;11.23;7.40;;;25.50;61.30;;;;;;5031397;28;20432;-52
2021/06/11 07:43:20;;;;;;;9.30;8.40;;;25.60;61.60;;;;;;5030888;28;20483;-52
2021/06/11 07:45:46;;;;;;;9.87;6.20;;;25.50;61.70;;;;;;5031144;28;20443;-51
2021/06/11 07:48:13;;;;;;;7.90;6.93;;;25.60;62.00;;;;;;5030591;28;20537;-51
2021/06/11 07:50:39;;;;;;;8.17;7.07;;;25.60;61.60;;;;;;5030711;28;20428;-51
2021/06/11 07:53:05;;;;;;;9.87;8.93;;;25.60;61.60;;;;;;5030378;28;20471;-51
2021/06/11 07:55:33;;;;;;;9.50;8.57;;;25.50;60.80;;;;;;5031055;28;20538;-51
2021/06/11 07:57:59;;;;;;;9.93;8.00;;;25.50;60.90;;;;;;5030793;28;20436;-51
2021/06/11 08:00:26;;;;;;;9.20;8.03;;;25.50;60.90;;;;;;5031126;28;20857;-51
2021/06/11 08:02:55;;;;;;;8.03;7.27;;;25.50;60.80;;;;;;5030748;28;20839;-50
2021/06/11 08:05:21;;;;;;;8.57;7.83;;;25.40;60.70;;;;;;5030933;28;20577;-50
2021/06/11 08:07:48;;;;;;;11.83;7.67;;;25.60;60.80;;;;;;5030814;28;20435;-50
2021/06/11 08:10:14;;;;;;;8.47;7.40;;;25.70;60.90;;;;;;5030560;28;20443;-50
2021/06/11 08:12:41;;;;;;;9.03;8.13;;;25.70;61.10;;;;;;5030674;28;20880;-51
2021/06/11 08:15:08;;;;;;;10.93;9.80;;;25.70;61.40;;;;;;5030441;28;20801;-50
2021/06/11 08:17:34;;;;;;;10.73;7.47;;;25.70;61.70;;;;;;5028838;28;20471;-51
2021/06/11 08:20:01;;;;;;;10.03;9.13;;;25.80;61.30;;;;;;5030169;28;20432;-51
2021/06/11 08:22:27;;;;;;;8.67;7.90;;;25.80;61.20;;;;;;5030515;28;20487;-51
2021/06/11 08:24:53;;;;;;;10.27;8.40;;;25.70;61.20;;;;;;5029230;28;20972;-51
2021/06/11 08:27:19;;;;;;;12.17;8.53;;;25.80;61.10;;;;;;5030548;28;20948;-51
2021/06/11 08:29:47;;;;;;;9.97;8.53;;;25.80;61.00;;;;;;5030265;28;20436;-51
2021/06/11 08:32:13;;;;;;;8.93;7.43;;;25.80;61.50;;;;;;5030468;28;20460;-51
2021/06/11 08:34:40;;;;;;;10.80;8.80;;;25.80;61.60;;;;;;5030354;28;20446;-51
2021/06/11 08:37:07;;;;;;;10.17;9.17;;;25.80;61.40;;;;;;5030417;28;20455;-51
2021/06/11 08:39:34;;;;;;;16.80;11.43;;;25.90;61.20;;;;;;5029820;28;20523;-51
2021/06/11 08:42:01;;;;;;;15.90;9.80;;;26.10;60.80;;;;;;5030530;28;21019;-52
2021/06/11 08:44:28;;;;;;;53.97;28.13;;;26.20;60.20;;;;;;5030245;28;20438;-52
2021/06/11 08:46:56;;;;;;;42.23;19.50;;;26.50;59.40;;;;;;5030084;28;20451;-51
2021/06/11 08:49:24;;;;;;;41.87;19.17;;;26.70;58.90;;;;;;5031618;28;20526;-52
2021/06/11 08:51:51;;;;;;;34.00;18.07;;;26.80;58.70;;;;;;5034177;28;20435;-52
2021/06/11 08:54:18;;;;;;;58.50;37.97;;;27.00;58.60;;;;;;5034416;28;20482;-52
2021/06/11 08:56:44;;;;;;;21.40;11.13;;;27.00;58.30;;;;;;5034398;28;20538;-52
2021/06/11 08:59:11;;;;;;;15.80;10.17;;;26.90;57.80;;;;;;5033803;28;20430;-51
2021/06/11 09:01:37;;;;;;;8.90;7.37;;;26.60;57.40;;;;;;5033956;28;20843;-52
2021/06/11 09:04:05;;;;;;;46.13;34.57;;;26.60;57.60;;;;;;5033548;28;20481;-51
2021/06/11 09:06:31;;;;;;;23.00;20.63;;;26.50;57.90;;;;;;5034326;28;20455;-51
2021/06/11 09:09:00;;;;;;;40.27;31.30;;;26.60;57.90;;;;;;5033551;28;20444;-52
2021/06/11 09:11:29;;;;;;;6.43;5.83;;;26.60;58.10;;;;;;5033972;28;20931;-51
2021/06/11 09:14:01;;;;;;;31.83;28.20;;;26.60;57.40;;;;;;5034138;28;20551;-52
2021/06/11 09:16:28;;;;;;;57.23;51.80;;;26.50;57.40;;;;;;5033930;28;20432;-52
2021/06/11 09:18:57;;;;;;;93.33;74.00;;;26.50;57.60;;;;;;5033710;28;20436;-52
2021/06/11 09:21:36;;;;;;;10.83;8.77;;;26.40;57.80;;;;;;5033863;28;20848;-52
2021/06/11 09:24:11;;;;;;;65.20;50.83;;;26.50;57.10;;;;;;5032604;28;20493;-51
2021/06/11 09:26:38;;;;;;;82.80;56.40;;;26.50;56.80;;;;;;5034030;28;20517;-51
2021/06/11 09:29:18;;;;;;;10.80;7.10;;;26.60;56.80;;;;;;5033406;28;20803;-52
2021/06/11 09:31:44;;;;;;;187.40;152.50;;;26.70;56.80;;;;;;5033409;28;20950;-52
2021/06/11 09:34:20;;;;;;;14.63;7.00;;;26.80;56.60;;;;;;5033351;28;20459;-51
2021/06/11 09:37:01;;;;;;;220.33;195.63;;;26.80;56.00;;;;;;5033592;28;20431;-51
2021/06/11 09:39:41;;;;;;;7.00;6.30;;;27.00;55.50;;;;;;5033242;28;20872;-51
2021/06/11 09:42:11;;;;;;;65.40;58.00;;;26.80;54.70;;;;;;5033529;28;20451;-51
2021/06/11 09:44:37;;;;;;;5.77;4.83;;;27.00;54.80;;;;;;5033131;28;20446;-51
2021/06/11 09:47:04;;;;;;;4.83;3.80;;;27.10;53.90;;;;;;5033523;28;20448;-51
2021/06/11 09:49:43;;;;;;;4.43;4.03;;;27.00;52.70;;;;;;5033217;28;20435;-51
2021/06/11 09:52:12;;;;;;;7.03;5.33;;;27.10;52.70;;;;;;5033513;28;20481;-51
2021/06/11 09:54:39;;;;;;;27.73;11.90;;;27.10;53.00;;;;;;5033499;28;20428;-51
2021/06/11 09:57:22;;;;;;;6.80;4.77;;;27.10;52.10;;;;;;5033411;28;20918;-51
2021/06/11 09:59:48;;;;;;;7.60;5.00;;;27.20;51.40;;;;;;5033470;28;20483;-51
2021/06/11 10:02:16;;;;;;;3.73;3.43;;;27.00;51.40;;;;;;5031843;28;20800;-51
2021/06/11 10:04:44;;;;;;;7.03;3.73;;;27.20;50.40;;;;;;5032962;28;20436;-52
2021/06/11 10:07:12;;;;;;;8.33;3.83;;;27.10;50.30;;;;;;5032992;28;20436;-52
2021/06/11 10:09:39;;;;;;;61.27;20.67;;;27.10;50.60;;;;;;5032901;28;20856;-52
2021/06/11 10:12:06;;;;;;;5.33;4.00;;;27.00;51.60;;;;;;5032639;28;20462;-51
2021/06/11 10:14:35;;;;;;;6.60;4.20;;;27.00;52.50;;;;;;5032740;28;20440;-52
2021/06/11 10:17:02;;;;;;;8.70;4.40;;;27.00;53.10;;;;;;5032599;28;20546;-51
2021/06/11 10:19:29;;;;;;;10.33;5.40;;;27.10;53.00;;;;;;5032465;28;20873;-52
2021/06/11 10:21:55;;;;;;;5.80;4.40;;;27.20;52.60;;;;;;5032399;28;20920;-52
2021/06/11 10:24:23;;;;;;;4.93;3.97;;;27.30;52.40;;;;;;5032803;28;20980;-51
2021/06/11 10:26:50;;;;;;;4.80;3.60;;;27.20;52.20;;;;;;5032970;28;20477;-52
2021/06/11 10:29:17;;;;;;;5.87;2.90;;;27.30;50.50;;;;;;5032310;28;20881;-51
2021/06/11 10:31:44;;;;;;;8.67;2.70;;;27.20;50.20;;;;;;5032784;28;20434;-52
2021/06/11 10:34:11;;;;;;;2.73;2.10;;;27.20;50.00;;;;;;5032445;28;20909;-52
2021/06/11 10:36:40;;;;;;;4.50;3.20;;;27.10;49.60;;;;;;5030973;28;20522;-51
2021/06/11 10:39:47;;;;;;;4.67;3.00;;;27.10;49.70;;;;;;5030639;28;20544;-52
2021/06/11 10:42:19;;;;;;;3.60;2.77;;;27.10;50.00;;;;;;5032117;28;20447;-51
2021/06/11 10:44:48;;;;;;;6.10;3.70;;;27.10;51.30;;;;;;5032436;28;20471;-52
2021/06/11 10:47:24;;;;;;;3.53;2.83;;;27.10;51.90;;;;;;5032368;28;20510;-50
2021/06/11 10:50:10;;;;;;;2.53;2.33;;;27.10;52.30;;;;;;5032281;28;20874;-51
2021/06/11 10:52:38;;;;;;;9.70;3.90;;;27.10;51.90;;;;;;5049867;22;20502;-50
2021/06/11 10:55:48;;;;;;;4.57;3.00;;;27.00;52.40;;;;;;5053110;28;20826;-50
2021/06/11 10:58:26;;;;;;;4.40;2.83;;;26.90;52.60;;;;;;5030666;28;20453;-50
2021/06/11 11:00:53;;;;;;;8.70;3.83;;;26.90;52.20;;;;;;5052858;28;20438;-50
2021/06/11 11:03:36;;;;;;;5.20;2.90;;;26.80;52.20;;;;;;5052765;28;20578;-52
2021/06/11 11:06:26;;;;;;;5.70;3.20;;;26.90;52.00;;;;;;5052979;28;20827;-50
2021/06/11 11:08:53;;;;;;;8.43;4.03;;;26.90;52.60;;;;;;5052111;28;20438;-52
2021/06/11 11:11:30;;;;;;;9.73;3.53;;;27.00;53.30;;;;;;5053435;28;20492;-50
2021/06/11 11:13:57;;;;;;;7.53;4.30;;;27.10;53.50;;;;;;5052298;28;21027;-53
2021/06/11 11:16:26;;;;;;;7.57;3.20;;;27.20;53.40;;;;;;5053537;28;20933;-52
2021/06/11 11:18:52;;;;;;;3.93;3.20;;;27.30;53.20;;;;;;5052514;28;20435;-50
2021/06/11 11:21:27;;;;;;;6.00;3.60;;;27.40;53.50;;;;;;5052344;28;20534;-49
2021/06/11 11:23:55;;;;;;;5.43;3.20;;;27.50;52.80;;;;;;5051727;28;20481;-50
2021/06/11 11:26:38;;;;;;;4.10;3.00;;;27.80;52.60;;;;;;5052700;28;20473;-51
2021/06/11 11:29:06;;;;;;;3.67;2.70;;;27.60;52.30;;;;;;5051240;28;20435;-51
2021/06/11 11:31:32;;;;;;;5.33;3.10;;;28.10;52.70;;;;;;5051876;28;20524;-49
2021/06/11 11:33:58;;;;;;;2.47;2.27;;;27.60;52.50;;;;;;5051612;28;20948;-49
2021/06/11 11:36:25;;;;;;;3.73;2.47;;;27.60;52.60;;;;;;5051992;28;20873;-49
2021/06/11 11:38:51;;;;;;;3.73;2.70;;;27.60;52.00;;;;;;5051735;28;20430;-49
2021/06/11 11:41:19;;;;;;;5.00;2.63;;;27.50;51.70;;;;;;5052590;28;20428;-51
2021/06/11 11:43:45;;;;;;;2.80;2.23;;;27.40;51.60;;;;;;5051456;28;20984;-49
2021/06/11 11:46:13;;;;;;;8.90;3.43;;;27.40;51.20;;;;;;5051866;28;20475;-50
2021/06/11 11:48:39;;;;;;;5.80;2.93;;;27.40;51.80;;;;;;5051431;28;20757;-50
2021/06/11 11:51:06;;;;;;;25.53;5.00;;;27.50;52.10;;;;;;5050081;28;20845;-50
2021/06/11 11:53:32;;;;;;;7.10;2.67;;;27.60;52.40;;;;;;5051531;28;20990;-50
2021/06/11 11:55:59;;;;;;;4.10;3.60;;;27.70;52.50;;;;;;5051658;28;20961;-49
2021/06/11 11:58:26;;;;;;;6.20;3.00;;;27.90;52.30;;;;;;5051428;28;20433;-49
2021/06/11 12:00:53;;;;;;;3.13;2.80;;;27.90;52.00;;;;;;5051571;28;20438;-51
2021/06/11 12:03:20;;;;;;;5.17;3.20;;;28.00;51.80;;;;;;5051572;28;20902;-52
2021/06/11 12:05:46;;;;;;;4.23;2.73;;;28.00;51.50;;;;;;5051686;28;20433;-49
2021/06/11 12:08:13;;;;;;;3.53;2.83;;;28.10;51.60;;;;;;5050787;28;20465;-50
2021/06/11 12:10:39;;;;;;;8.07;3.87;;;28.10;51.60;;;;;;5051687;28;20842;-50
2021/06/11 12:13:05;;;;;;;4.37;3.20;;;28.10;51.70;;;;;;5051174;28;20532;-50
2021/06/11 12:15:31;;;;;;;3.40;2.80;;;28.10;51.70;;;;;;5051036;28;20953;-51
2021/06/11 12:17:57;;;;;;;5.10;3.00;;;28.20;51.70;;;;;;5051376;28;20927;-50
2021/06/11 12:20:29;;;;;;;3.00;2.13;;;28.20;51.60;;;;;;5051254;28;20992;-50
2021/06/11 12:22:56;;;;;;;2.40;2.00;;;28.10;51.40;;;;;;5051277;28;20580;-50
2021/06/11 12:25:22;;;;;;;4.27;2.20;;;28.00;51.30;;;;;;5050761;28;20480;-49
2021/06/11 12:27:48;;;;;;;2.77;1.90;;;27.90;51.30;;;;;;5052653;28;20808;-51
2021/06/11 12:30:15;;;;;;;3.93;2.57;;;27.80;51.30;;;;;;5050806;28;20845;-49
2021/06/11 12:32:42;;;;;;;4.40;2.07;;;27.80;51.30;;;;;;5051032;28;20462;-50
2021/06/11 12:35:09;;;;;;;5.07;2.17;;;27.90;51.30;;;;;;5051258;28;20439;-49
2021/06/11 12:37:37;;;;;;;4.77;2.43;;;27.90;50.90;;;;;;5051763;28;20524;-50
2021/06/11 12:40:05;;;;;;;5.30;2.17;;;28.00;50.50;;;;;;5051700;28;20432;-49
2021/06/11 12:42:35;;;;;;;4.27;2.07;;;28.10;50.20;;;;;;5051235;28;20469;-49
2021/06/11 12:45:01;;;;;;;3.77;2.67;;;28.20;50.10;;;;;;5050700;28;20449;-50
2021/06/11 12:47:27;;;;;;;2.67;2.13;;;28.10;49.80;;;;;;5049462;28;20465;-49